Juan De La Cosa — ECJE — position and weather

sailwx.info

Track history (hours):
 
Tides and Currents Weather Stations Pressure Air Temp Water Temp Dewpoint Dewpoint Depression Visibility Wind Speed Wind Dir Waves Ship Positions

Juan De La Cosa

Last reported at 2015-Mar-21 18:33 UTC. Time now 2015-Mar-27 01:56 UTC.
Position N 38°03' W 032°13'.

Length 75 m; draft 4.5 m.

Type: Medical transport. MMSI: 224612000.

Date/timePositionNaut miles runAvg speedWind from/ knotsBaromVisibWave heightAir tempDewpointWater temp
2015-Mar-21 18:33N 38°03' W 032°13'2010.0
2015-Mar-21 16:32N 38°02' W 031°47'1010.3
2015-Mar-21 15:34N 38°01' W 031°35'1111.1
2015-Mar-21 14:34N 38°01' W 031°20'1211.0
2015-Mar-21 13:30N 37°59' W 031°06'4610.6
2015-Mar-21 09:12N 37°55' W 030°08'710.6
2015-Mar-21 08:34N 37°54' W 029°60'1110.7
2015-Mar-21 07:33N 37°54' W 029°46'1111.2
2015-Mar-21 06:33N 37°53' W 029°32'1110.7
2015-Mar-21 05:33N 37°52' W 029°18'1110.9
2015-Mar-21 04:34N 37°51' W 029°05'1110.6
2015-Mar-21 03:33N 37°50' W 028°51'1110.5
2015-Mar-21 02:33N 37°49' W 028°38'1111.0
2015-Mar-21 01:33N 37°48' W 028°24'1110.7
2015-Mar-21 00:34N 37°48' W 028°10'1110.7
2015-Mar-20 23:33N 37°47' W 027°57'1110.7
2015-Mar-20 22:33N 37°47' W 027°44'1111.0
2015-Mar-20 21:34N 37°46' W 027°30'1010.1
2015-Mar-20 20:34N 37°45' W 027°17'8 8.2
2015-Mar-20 19:33N 37°44' W 027°07'8 8.0
2015-Mar-20 18:33N 37°44' W 026°57'8 7.9
2015-Mar-20 17:33N 37°43' W 026°47'8 8.2
2015-Mar-20 16:34N 37°42' W 026°36'8 7.9
2015-Mar-20 15:33N 37°42' W 026°26'8 7.8
2015-Mar-20 14:34N 37°41' W 026°17'8 8.1
2015-Mar-20 13:33N 37°40' W 026°06'8 8.3
2015-Mar-20 12:33N 37°39' W 025°56'8 8.0
2015-Mar-20 11:33N 37°39' W 025°46'8 8.3
2015-Mar-20 10:33N 37°38' W 025°35'8 8.1
2015-Mar-20 09:33N 37°37' W 025°25'6 5.9
2015-Mar-20 08:34N 37°37' W 025°18'5 4.8
2015-Mar-20 07:33N 37°37' W 025°24'5 5.2
2015-Mar-20 06:33N 37°37' W 025°30'5 5.3
2015-Mar-20 05:34N 37°37' W 025°37'5 5.5
2015-Mar-20 04:33N 37°37' W 025°44'5 5.2
2015-Mar-20 03:33N 37°37' W 025°51'6 6.1
2015-Mar-20 02:33N 37°37' W 025°43'6 6.4
2015-Mar-20 01:34N 37°37' W 025°35'6 6.3
2015-Mar-20 00:33N 37°37' W 025°27'6 6.0
2015-Mar-19 23:34N 37°37' W 025°19'6 6.2
2015-Mar-19 22:33N 37°36' W 025°11'3 3.1
2015-Mar-19 21:33N 37°37' W 025°07'5 5.3
2015-Mar-19 20:33N 37°37' W 025°14'5 5.4
2015-Mar-19 19:33N 37°37' W 025°21'6 5.6
2015-Mar-19 18:33N 37°37' W 025°28'6 5.6
2015-Mar-19 17:33N 37°37' W 025°35'6 5.6
2015-Mar-19 16:34N 37°37' W 025°42'5 4.6
2015-Mar-19 15:33N 37°37' W 025°48'5 5.0
2015-Mar-19 14:33N 37°36' W 025°54'5 5.4
2015-Mar-19 13:33N 37°32' W 025°58'6 5.9
2015-Mar-19 12:33N 37°28' W 026°04'6 5.8
2015-Mar-19 11:33N 37°23' W 026°09'1 1.0
2015-Mar-19 10:33N 37°23' W 026°09'0 0.2
2015-Mar-19 09:33N 37°23' W 026°09'3 3.0
2015-Mar-19 08:33N 37°23' W 026°13'9 9.1
2015-Mar-19 07:33N 37°22' W 026°24'1010.2
2015-Mar-19 06:33N 37°21' W 026°37'1110.5
2015-Mar-19 05:34N 37°21' W 026°50'1010.1
2015-Mar-19 04:34N 37°20' W 027°03'1010.4
2015-Mar-19 03:33N 37°20' W 027°16'1210.5
2015-Mar-19 02:24N 37°19' W 027°31'1210.7
2015-Mar-19 01:15N 37°19' W 027°47'810.9
2015-Mar-19 00:33N 37°18' W 027°56'1111.0
2015-Mar-18 23:33N 37°18' W 028°10'1111.1
2015-Mar-18 22:33N 37°18' W 028°24'1111.1
2015-Mar-18 21:33N 37°17' W 028°38'1111.0
2015-Mar-18 20:33N 37°17' W 028°52'1111.1
2015-Mar-18 19:33N 37°17' W 029°06'1111.1
2015-Mar-18 18:34N 37°17' W 029°20'9 9.2
2015-Mar-18 17:33N 37°15' W 029°31'8 7.8
2015-Mar-18 16:30N 37°10' W 029°40'12 8.8
2015-Mar-18 15:09N 37°04' W 029°52'  
2015-Mar-14 07:13N 35°59' W 030°29'10 5.5
2015-Mar-14 05:20N 36°01' W 030°41'49 2.7
2015-Mar-13 11:17N 35°13' W 030°43'216 6.2
2015-Mar-12 00:33N 36°47' W 026°43'8 7.9
2015-Mar-11 23:34N 36°53' W 026°37'8 7.9
2015-Mar-11 22:33N 36°59' W 026°31'7 7.4
2015-Mar-11 21:33N 37°05' W 026°25'8 7.6
2015-Mar-11 20:33N 37°10' W 026°19'8 7.7
2015-Mar-11 19:33N 37°16' W 026°12'7 7.4
2015-Mar-11 18:33N 37°22' W 026°06'  
Track history (hours):
 
Tides and Currents Weather Stations Pressure Air Temp Water Temp Dewpoint Dewpoint Depression Visibility Wind Speed Wind Dir Waves Ship Positions

Juan De La Cosa

Last reported at 2015-Mar-21 18:33 UTC. Time now 2015-Mar-27 01:56 UTC.
Position N 38°03' W 032°13'.

Length 75 m; draft 4.5 m.

Type: Medical transport. MMSI: 224612000.

Date/timePositionNaut miles runAvg speedWind from/ knotsBaromVisibWave heightAir tempDewpointWater temp
2015-Mar-21 18:33N 38°03' W 032°13'2010.0
2015-Mar-21 16:32N 38°02' W 031°47'1010.3
2015-Mar-21 15:34N 38°01' W 031°35'1111.1
2015-Mar-21 14:34N 38°01' W 031°20'1211.0
2015-Mar-21 13:30N 37°59' W 031°06'4610.6
2015-Mar-21 09:12N 37°55' W 030°08'710.6
2015-Mar-21 08:34N 37°54' W 029°60'1110.7
2015-Mar-21 07:33N 37°54' W 029°46'1111.2
2015-Mar-21 06:33N 37°53' W 029°32'1110.7
2015-Mar-21 05:33N 37°52' W 029°18'1110.9
2015-Mar-21 04:34N 37°51' W 029°05'1110.6
2015-Mar-21 03:33N 37°50' W 028°51'1110.5
2015-Mar-21 02:33N 37°49' W 028°38'1111.0
2015-Mar-21 01:33N 37°48' W 028°24'1110.7
2015-Mar-21 00:34N 37°48' W 028°10'1110.7
2015-Mar-20 23:33N 37°47' W 027°57'1110.7
2015-Mar-20 22:33N 37°47' W 027°44'1111.0
2015-Mar-20 21:34N 37°46' W 027°30'1010.1
2015-Mar-20 20:34N 37°45' W 027°17'8 8.2
2015-Mar-20 19:33N 37°44' W 027°07'8 8.0
2015-Mar-20 18:33N 37°44' W 026°57'8 7.9
2015-Mar-20 17:33N 37°43' W 026°47'8 8.2
2015-Mar-20 16:34N 37°42' W 026°36'8 7.9
2015-Mar-20 15:33N 37°42' W 026°26'8 7.8
2015-Mar-20 14:34N 37°41' W 026°17'8 8.1
2015-Mar-20 13:33N 37°40' W 026°06'8 8.3
2015-Mar-20 12:33N 37°39' W 025°56'8 8.0
2015-Mar-20 11:33N 37°39' W 025°46'8 8.3
2015-Mar-20 10:33N 37°38' W 025°35'8 8.1
2015-Mar-20 09:33N 37°37' W 025°25'6 5.9
2015-Mar-20 08:34N 37°37' W 025°18'5 4.8
2015-Mar-20 07:33N 37°37' W 025°24'5 5.2
2015-Mar-20 06:33N 37°37' W 025°30'5 5.3
2015-Mar-20 05:34N 37°37' W 025°37'5 5.5
2015-Mar-20 04:33N 37°37' W 025°44'5 5.2
2015-Mar-20 03:33N 37°37' W 025°51'6 6.1
2015-Mar-20 02:33N 37°37' W 025°43'6 6.4
2015-Mar-20 01:34N 37°37' W 025°35'6 6.3
2015-Mar-20 00:33N 37°37' W 025°27'6 6.0
2015-Mar-19 23:34N 37°37' W 025°19'6 6.2
2015-Mar-19 22:33N 37°36' W 025°11'3 3.1
2015-Mar-19 21:33N 37°37' W 025°07'5 5.3
2015-Mar-19 20:33N 37°37' W 025°14'5 5.4
2015-Mar-19 19:33N 37°37' W 025°21'6 5.6
2015-Mar-19 18:33N 37°37' W 025°28'6 5.6
2015-Mar-19 17:33N 37°37' W 025°35'6 5.6
2015-Mar-19 16:34N 37°37' W 025°42'5 4.6
2015-Mar-19 15:33N 37°37' W 025°48'5 5.0
2015-Mar-19 14:33N 37°36' W 025°54'5 5.4
2015-Mar-19 13:33N 37°32' W 025°58'6 5.9
2015-Mar-19 12:33N 37°28' W 026°04'6 5.8
2015-Mar-19 11:33N 37°23' W 026°09'1 1.0
2015-Mar-19 10:33N 37°23' W 026°09'0 0.2
2015-Mar-19 09:33N 37°23' W 026°09'3 3.0
2015-Mar-19 08:33N 37°23' W 026°13'9 9.1
2015-Mar-19 07:33N 37°22' W 026°24'1010.2
2015-Mar-19 06:33N 37°21' W 026°37'1110.5
2015-Mar-19 05:34N 37°21' W 026°50'1010.1
2015-Mar-19 04:34N 37°20' W 027°03'1010.4
2015-Mar-19 03:33N 37°20' W 027°16'1210.5
2015-Mar-19 02:24N 37°19' W 027°31'1210.7
2015-Mar-19 01:15N 37°19' W 027°47'810.9
2015-Mar-19 00:33N 37°18' W 027°56'1111.0
2015-Mar-18 23:33N 37°18' W 028°10'1111.1
2015-Mar-18 22:33N 37°18' W 028°24'1111.1
2015-Mar-18 21:33N 37°17' W 028°38'1111.0
2015-Mar-18 20:33N 37°17' W 028°52'1111.1
2015-Mar-18 19:33N 37°17' W 029°06'1111.1
2015-Mar-18 18:34N 37°17' W 029°20'9 9.2
2015-Mar-18 17:33N 37°15' W 029°31'8 7.8
2015-Mar-18 16:30N 37°10' W 029°40'12 8.8
2015-Mar-18 15:09N 37°04' W 029°52'  
2015-Mar-14 07:13N 35°59' W 030°29'10 5.5
2015-Mar-14 05:20N 36°01' W 030°41'49 2.7
2015-Mar-13 11:17N 35°13' W 030°43'216 6.2
2015-Mar-12 00:33N 36°47' W 026°43'8 7.9
2015-Mar-11 23:34N 36°53' W 026°37'8 7.9
2015-Mar-11 22:33N 36°59' W 026°31'7 7.4
2015-Mar-11 21:33N 37°05' W 026°25'8 7.6
2015-Mar-11 20:33N 37°10' W 026°19'8 7.7
2015-Mar-11 19:33N 37°16' W 026°12'7 7.4
2015-Mar-11 18:33N 37°22' W 026°06'  

Dump ship's entire track history